Impacts TAF Board
For situational awareness. Not to be used for flight planning purposes.
IDs:

KRSW - Ft Myers/SW Florida, FL, US

Issued at 0527 UTC 03 Aug 2021
Updated at 0903 UTC 03 Aug 2021
Potential Impact None Slight Moderate High
Time0853Z 03/10Z 03/11Z 03/12Z 03/13Z 03/14Z 03/15Z 03/16Z 03/17Z 03/18Z 03/19Z 03/20Z 03/21Z 03/22Z>>
Type OBS PRVL PRVL PRVL PRVL PRVL PRVL PRVL PRVL PRVL PRVL PRVL PRVL PRVL
VIS 10 >6 >6 >6 >6 >6 >6 >6 >6 >6 >6 >6 >6 >6
CIG -- -- -- -- -- 250 250 250 250 100 100 100 100 100
Cover SCT SCT SCT SCT SCT BKN BKN BKN BKN BKN BKN BKN BKN BKN
FltCat VFR VFR VFR VFR VFR VFR VFR VFR VFR VFR VFR VFR VFR VFR
WX -- -- -- -- -- VCSH VCSH VCSH VCSH VCTS VCTS VCTS VCTS VCTS
WDir VRB VRB VRB VRB VRB 230 230 230 230 240 240 240 240 240
WSpd 0 4 4 4 4 7 7 7 7 11 11 11 11 11
WGst -- -- -- -- -- -- -- -- -- -- -- -- -- --
Raw TAF
KRSW 030527Z 0306/0406 VRB04KT P6SM FEW025 SCT250
  FM031400 23007KT P6SM VCSH SCT025 BKN250
  FM031800 24011KT P6SM VCTS SCT035CB BKN100 BKN250
  FM040000 21005KT P6SM VCSH SCT030 BKN100 BKN250
  FM040400 17004KT P6SM SCT025 BKN250


Raw METAR
KRSW 030853Z AUTO 00000KT 10SM SCT030 SCT038 26/23 A2997 RMK AO2 SLP146 T02610228 56011 $
KRSW 030753Z AUTO 00000KT 10SM FEW029 26/22 A2999 RMK AO2 SLP151 T02610222 $
KRSW 030653Z AUTO 19006KT 10SM CLR 26/22 A2998 RMK AO2 SLP151 T02610222 $

METAR Board
Radar Display
Forecast Discussion
For situational awareness. Not to be used for flight planning purposes.